createdAt,value
2023-08-20T00:01:03.295Z,25.83
2023-08-20T00:03:41.427Z,25.76
2023-08-20T00:06:19.402Z,25.74
2023-08-20T00:08:57.355Z,25.71
2023-08-20T00:11:36.667Z,25.67
2023-08-20T00:14:15.423Z,25.65
2023-08-20T00:16:52.511Z,25.65
2023-08-20T00:19:29.705Z,25.67
2023-08-20T00:22:08.297Z,25.66
2023-08-20T00:24:45.425Z,25.66
2023-08-20T00:27:23.437Z,25.63
2023-08-20T00:30:00.435Z,25.62
2023-08-20T00:32:38.461Z,25.61
2023-08-20T00:35:16.357Z,25.60
2023-08-20T00:37:53.348Z,25.59
2023-08-20T00:40:33.118Z,25.58
2023-08-20T00:43:09.365Z,25.56
2023-08-20T00:45:46.353Z,25.54
2023-08-20T00:48:23.336Z,25.55
2023-08-20T00:51:00.486Z,25.57
2023-08-20T00:53:44.371Z,25.56
2023-08-20T00:56:21.399Z,25.56
2023-08-20T00:58:59.401Z,25.56
2023-08-20T01:01:37.395Z,25.54
2023-08-20T01:04:14.435Z,25.52
2023-08-20T01:07:17.411Z,25.51
2023-08-20T01:10:10.493Z,25.48
2023-08-20T01:12:50.427Z,25.46
2023-08-20T01:15:27.435Z,25.44
2023-08-20T01:18:04.927Z,25.45
2023-08-20T01:20:48.380Z,25.44
2023-08-20T01:23:40.525Z,25.43
2023-08-20T01:26:31.413Z,25.40
2023-08-20T01:29:10.885Z,25.37
2023-08-20T01:31:48.719Z,25.35
2023-08-20T01:34:28.543Z,25.33
2023-08-20T01:37:05.416Z,25.31
2023-08-20T01:39:42.462Z,25.29
2023-08-20T01:42:21.412Z,25.26
2023-08-20T01:45:00.602Z,25.24
2023-08-20T01:47:37.569Z,25.24
2023-08-20T01:50:14.548Z,25.24
2023-08-20T01:52:52.970Z,25.22
2023-08-20T01:55:32.617Z,25.21
2023-08-20T01:58:10.709Z,25.18
2023-08-20T02:00:47.899Z,25.17
2023-08-20T02:03:24.463Z,25.14
2023-08-20T02:06:01.899Z,25.12
2023-08-20T02:08:39.597Z,25.09
2023-08-20T02:11:19.501Z,25.05
2023-08-20T02:13:56.539Z,25.03
2023-08-20T02:16:33.593Z,25.00
2023-08-20T02:19:11.657Z,24.99
2023-08-20T02:21:50.559Z,24.98
2023-08-20T02:24:27.534Z,24.95
2023-08-20T02:27:04.658Z,24.93
2023-08-20T02:29:41.516Z,24.91
2023-08-20T02:32:19.871Z,24.86
2023-08-20T02:34:59.499Z,24.83
2023-08-20T02:37:36.757Z,24.77
2023-08-20T02:40:15.579Z,24.74
2023-08-20T02:42:52.562Z,24.72
2023-08-20T02:45:29.585Z,24.73
2023-08-20T02:48:09.878Z,24.72
2023-08-20T02:50:46.696Z,24.71
2023-08-20T02:53:25.209Z,24.70
2023-08-20T02:56:02.667Z,24.70
2023-08-20T02:58:39.605Z,24.67
2023-08-20T03:01:16.981Z,24.66
2023-08-20T03:03:54.787Z,24.64
2023-08-20T03:06:31.938Z,24.61
2023-08-20T03:09:09.589Z,24.58
2023-08-20T03:11:48.660Z,24.56
2023-08-20T03:14:28.460Z,24.55
2023-08-20T03:17:06.701Z,24.53
2023-08-20T03:19:48.601Z,24.49
2023-08-20T03:22:28.003Z,24.46
2023-08-20T03:25:04.584Z,24.45
2023-08-20T03:27:42.754Z,24.42
2023-08-20T03:30:19.615Z,24.40
2023-08-20T03:32:56.702Z,24.38
2023-08-20T03:35:34.598Z,24.35
2023-08-20T03:38:11.624Z,24.35
2023-08-20T03:40:48.736Z,24.33
2023-08-20T03:43:25.749Z,24.31
2023-08-20T03:46:05.774Z,24.29
2023-08-20T03:48:42.729Z,24.29
2023-08-20T03:51:21.673Z,24.26
2023-08-20T03:53:58.984Z,24.23
2023-08-20T03:56:42.752Z,24.21
2023-08-20T03:59:19.675Z,24.18
2023-08-20T04:01:59.775Z,24.16
2023-08-20T04:04:39.862Z,24.15
2023-08-20T04:07:18.885Z,24.14
2023-08-20T04:09:55.736Z,24.12
2023-08-20T04:12:32.669Z,24.12
2023-08-20T04:15:09.751Z,24.09
2023-08-20T04:17:48.799Z,24.07
2023-08-20T04:20:25.707Z,24.03
2023-08-20T04:23:02.670Z,24.00
2023-08-20T04:25:42.408Z,23.96
2023-08-20T04:28:20.961Z,23.94
2023-08-20T04:30:57.840Z,23.92
2023-08-20T04:33:47.744Z,23.86
2023-08-20T04:36:26.813Z,23.84
2023-08-20T04:39:03.771Z,23.80
2023-08-20T04:41:42.129Z,23.76
2023-08-20T04:44:21.776Z,23.74
2023-08-20T04:46:59.163Z,23.74
2023-08-20T04:49:37.724Z,23.76
2023-08-20T04:52:16.192Z,23.77
2023-08-20T04:54:52.950Z,23.79
2023-08-20T04:57:29.801Z,23.80
2023-08-20T05:00:07.000Z,23.81
2023-08-20T05:03:09.934Z,23.81
2023-08-20T05:05:47.813Z,23.81
2023-08-20T05:08:25.970Z,23.81
2023-08-20T05:11:03.938Z,23.84
2023-08-20T05:13:40.894Z,23.88
2023-08-20T05:16:17.792Z,23.91
2023-08-20T05:18:55.842Z,23.93
2023-08-20T05:21:34.855Z,23.96
2023-08-20T05:24:11.887Z,23.98
2023-08-20T05:26:53.104Z,23.98
2023-08-20T05:29:30.887Z,23.99
2023-08-20T05:32:09.214Z,24.01
2023-08-20T05:34:48.894Z,24.05
2023-08-20T05:37:25.896Z,24.08
2023-08-20T05:40:02.859Z,24.08
2023-08-20T05:42:40.906Z,24.08
2023-08-20T05:45:17.912Z,24.08
2023-08-20T05:47:57.937Z,24.10
2023-08-20T05:50:35.258Z,24.12
2023-08-20T05:53:11.913Z,24.12
2023-08-20T05:55:49.870Z,24.17
2023-08-20T05:58:26.837Z,24.18
2023-08-20T06:01:03.953Z,24.15
2023-08-20T06:03:41.028Z,24.13
2023-08-20T06:06:18.048Z,24.13
2023-08-20T06:09:07.816Z,24.16
2023-08-20T06:11:47.282Z,24.20
2023-08-20T06:14:23.979Z,24.25
2023-08-20T06:17:00.932Z,24.31
2023-08-20T06:19:39.930Z,24.38
2023-08-20T06:22:17.023Z,24.41
2023-08-20T06:24:53.948Z,24.46
2023-08-20T06:27:31.923Z,24.51
2023-08-20T06:30:11.005Z,24.56
2023-08-20T06:32:49.703Z,24.55
2023-08-20T06:35:28.382Z,24.53
2023-08-20T06:38:06.095Z,24.56
2023-08-20T06:40:43.200Z,24.56
2023-08-20T06:43:21.008Z,24.54
2023-08-20T06:45:58.029Z,24.55
2023-08-20T06:48:36.976Z,24.58
2023-08-20T06:51:13.926Z,24.58
2023-08-20T06:53:51.033Z,24.62
2023-08-20T06:56:28.012Z,24.68
2023-08-20T06:59:12.408Z,24.80
2023-08-20T07:01:49.018Z,24.92
2023-08-20T07:04:28.025Z,24.96
2023-08-20T07:07:06.102Z,25.03
2023-08-20T07:09:44.071Z,25.06
2023-08-20T07:12:24.091Z,25.09
2023-08-20T07:15:02.059Z,25.13
2023-08-20T07:17:39.190Z,25.19
2023-08-20T07:20:16.149Z,25.30
2023-08-20T07:22:57.131Z,25.31
2023-08-20T07:25:34.140Z,25.33
2023-08-20T07:28:12.132Z,25.40
2023-08-20T07:30:51.425Z,25.45
2023-08-20T07:33:29.046Z,25.48
2023-08-20T07:36:06.025Z,25.50
2023-08-20T07:38:49.032Z,25.53
2023-08-20T07:41:31.069Z,25.53
2023-08-20T07:44:08.202Z,25.57
2023-08-20T07:46:47.091Z,25.60
2023-08-20T07:49:25.099Z,25.67
2023-08-20T07:52:04.093Z,25.68
2023-08-20T07:54:42.122Z,25.67
2023-08-20T07:57:19.107Z,25.65
2023-08-20T07:59:56.101Z,25.68
2023-08-20T08:02:41.199Z,25.73
2023-08-20T08:05:19.114Z,25.76
2023-08-20T08:07:57.235Z,25.83
2023-08-20T08:10:34.099Z,25.84
2023-08-20T08:13:16.084Z,25.88
2023-08-20T08:15:53.224Z,25.92
2023-08-20T08:18:36.226Z,26.00
2023-08-20T08:21:15.752Z,26.05
2023-08-20T08:23:53.284Z,26.09
2023-08-20T08:26:31.171Z,26.14
2023-08-20T08:29:08.082Z,26.18
2023-08-20T08:31:46.144Z,26.18
2023-08-20T08:34:23.216Z,26.17
2023-08-20T08:37:02.247Z,26.15
2023-08-20T08:39:39.274Z,26.16
2023-08-20T08:42:18.118Z,26.24
2023-08-20T08:44:58.174Z,26.33
2023-08-20T08:47:38.347Z,26.43
2023-08-20T08:50:16.254Z,26.55
2023-08-20T08:52:54.208Z,26.63
2023-08-20T08:55:32.238Z,26.73
2023-08-20T08:58:11.616Z,26.82
2023-08-20T09:00:50.319Z,26.90
2023-08-20T09:03:28.313Z,27.02
2023-08-20T09:06:11.587Z,27.12
2023-08-20T09:09:00.701Z,27.14
2023-08-20T09:11:50.365Z,27.15
2023-08-20T09:14:43.386Z,27.18
2023-08-20T09:17:23.225Z,27.22
2023-08-20T09:20:00.489Z,27.28
2023-08-20T09:22:43.192Z,27.33
2023-08-20T09:25:20.383Z,27.39
2023-08-20T09:28:01.639Z,27.44
2023-08-20T09:30:39.359Z,27.47
2023-08-20T09:33:21.307Z,27.49
2023-08-20T09:36:06.218Z,27.52
2023-08-20T09:38:43.550Z,27.52
2023-08-20T09:41:26.345Z,27.57
2023-08-20T09:44:10.533Z,27.63
2023-08-20T09:46:51.277Z,27.69
2023-08-20T09:49:32.283Z,27.73
2023-08-20T09:52:11.425Z,27.78
2023-08-20T09:55:15.278Z,27.83
2023-08-20T09:57:54.627Z,27.86
2023-08-20T10:00:40.382Z,27.92
2023-08-20T10:03:17.509Z,27.94
2023-08-20T10:05:57.372Z,27.98
2023-08-20T10:08:37.360Z,28.01
2023-08-20T10:11:15.439Z,28.05
2023-08-20T10:13:54.407Z,28.11
2023-08-20T10:16:35.417Z,28.15
2023-08-20T10:19:18.602Z,28.23
2023-08-20T10:21:59.569Z,28.33
2023-08-20T10:27:25.505Z,28.45
2023-08-20T10:30:02.384Z,28.47
2023-08-20T10:33:06.439Z,28.50
2023-08-20T10:36:02.506Z,28.55
2023-08-20T10:38:42.334Z,28.60
2023-08-20T10:41:25.357Z,28.61
2023-08-20T10:44:05.449Z,28.58
2023-08-20T10:46:44.367Z,28.56
2023-08-20T10:49:21.323Z,28.59
2023-08-20T10:52:04.364Z,28.62
2023-08-20T10:54:41.422Z,28.62
2023-08-20T10:57:19.349Z,28.65
2023-08-20T10:59:56.463Z,28.71
2023-08-20T11:02:35.679Z,28.77
2023-08-20T11:05:13.406Z,28.84
2023-08-20T11:07:54.381Z,28.89
2023-08-20T11:10:33.466Z,28.96
2023-08-20T11:13:13.621Z,29.04
2023-08-20T11:15:50.550Z,29.11
2023-08-20T11:18:27.547Z,29.15
2023-08-20T11:21:05.436Z,29.22
2023-08-20T11:23:43.445Z,29.32
2023-08-20T11:26:20.386Z,29.41
2023-08-20T11:29:02.539Z,29.45
2023-08-20T11:31:40.420Z,29.47
2023-08-20T11:34:17.538Z,29.51
2023-08-20T11:36:55.529Z,29.61
2023-08-20T11:39:32.532Z,29.65
2023-08-20T11:42:13.678Z,29.67
2023-08-20T11:45:01.952Z,29.68
2023-08-20T11:47:39.534Z,29.69
2023-08-20T11:50:17.991Z,29.69
2023-08-20T11:52:55.999Z,29.73
2023-08-20T11:55:41.941Z,29.79
2023-08-20T11:58:22.844Z,29.81
2023-08-20T12:01:04.684Z,29.89
2023-08-20T12:03:44.909Z,29.91
2023-08-20T12:06:38.469Z,29.94
2023-08-20T12:09:17.464Z,30.02
2023-08-20T12:12:05.525Z,30.05
2023-08-20T12:14:42.669Z,30.07
2023-08-20T12:17:22.689Z,30.05
2023-08-20T12:20:09.978Z,30.02
2023-08-20T12:22:46.507Z,30.02
2023-08-20T12:25:24.870Z,30.04
2023-08-20T12:28:02.563Z,30.07
2023-08-20T12:30:41.996Z,30.14
2023-08-20T12:33:20.733Z,30.19
2023-08-20T12:35:58.520Z,30.28
2023-08-20T12:38:41.563Z,30.37
2023-08-20T12:41:19.823Z,30.46
2023-08-20T12:43:58.207Z,30.50
2023-08-20T12:46:37.653Z,30.57
2023-08-20T12:49:16.584Z,30.63
2023-08-20T12:51:53.685Z,30.68
2023-08-20T12:54:30.672Z,30.73
2023-08-20T12:57:09.624Z,30.77
2023-08-20T12:59:46.580Z,30.80
2023-08-20T13:02:33.219Z,30.82
2023-08-20T13:05:09.618Z,30.88
2023-08-20T13:07:46.738Z,30.91
2023-08-20T13:10:24.838Z,30.92
2023-08-20T13:13:08.016Z,30.92
2023-08-20T13:15:46.893Z,30.95
2023-08-20T13:18:28.652Z,30.97
2023-08-20T13:21:07.734Z,30.98
2023-08-20T13:23:45.738Z,31.02
2023-08-20T13:26:25.684Z,31.06
2023-08-20T13:29:04.732Z,31.08
2023-08-20T13:31:47.052Z,31.13
2023-08-20T13:34:31.984Z,31.17
2023-08-20T13:37:08.664Z,31.18
2023-08-20T13:39:46.625Z,31.21
2023-08-20T13:42:28.009Z,31.22
2023-08-20T13:45:04.784Z,31.23
2023-08-20T13:47:48.508Z,31.25
2023-08-20T13:50:26.033Z,31.31
2023-08-20T13:53:07.015Z,31.35
2023-08-20T13:55:44.678Z,31.34
2023-08-20T13:58:22.801Z,31.33
2023-08-20T14:01:03.833Z,31.36
2023-08-20T14:03:41.846Z,31.38
2023-08-20T14:06:26.427Z,31.42
2023-08-20T14:09:07.945Z,31.46
2023-08-20T14:11:44.706Z,31.48
2023-08-20T14:14:25.518Z,31.48
2023-08-20T14:17:06.595Z,31.52
2023-08-20T14:19:44.235Z,31.53
2023-08-20T14:22:25.065Z,31.55
2023-08-20T14:25:03.735Z,31.56
2023-08-20T14:27:41.811Z,31.60
2023-08-20T14:30:20.811Z,31.64
2023-08-20T14:32:58.002Z,31.67
2023-08-20T14:35:34.705Z,31.69
2023-08-20T14:38:11.853Z,31.70
2023-08-20T14:40:55.978Z,31.70
2023-08-20T14:43:34.785Z,31.73
2023-08-20T14:46:11.737Z,31.74
2023-08-20T14:48:51.840Z,31.77
2023-08-20T14:51:29.833Z,31.79
2023-08-20T14:54:10.304Z,31.78
2023-08-20T14:56:47.775Z,31.75
2023-08-20T14:59:24.981Z,31.70
2023-08-20T15:02:03.838Z,31.66
2023-08-20T15:04:52.234Z,31.66
2023-08-20T15:10:19.172Z,31.72
2023-08-20T15:12:55.868Z,31.73
2023-08-20T15:15:36.822Z,31.72
2023-08-20T15:18:16.092Z,31.73
2023-08-20T15:20:53.102Z,31.73
2023-08-20T15:23:33.063Z,31.74
2023-08-20T15:26:11.953Z,31.75
2023-08-20T15:28:48.933Z,31.76
2023-08-20T15:31:27.935Z,31.76
2023-08-20T15:34:05.894Z,31.65
2023-08-20T15:36:46.999Z,31.57
2023-08-20T15:39:32.283Z,31.51
2023-08-20T15:42:10.854Z,31.43
2023-08-20T15:44:49.042Z,31.37
2023-08-20T15:47:29.073Z,31.31
2023-08-20T15:50:09.875Z,31.27
2023-08-20T15:52:50.890Z,31.24
2023-08-20T15:55:29.116Z,31.22
2023-08-20T15:58:06.208Z,31.19
2023-08-20T16:00:45.240Z,31.17
2023-08-20T16:03:35.080Z,31.19
2023-08-20T16:06:14.307Z,31.18
2023-08-20T16:08:51.921Z,31.17
2023-08-20T16:11:32.700Z,31.16
2023-08-20T16:14:12.746Z,31.14
2023-08-20T16:16:54.933Z,31.11
2023-08-20T16:19:36.403Z,31.10
2023-08-20T16:22:13.910Z,31.10
2023-08-20T16:24:53.915Z,31.10
2023-08-20T16:27:38.615Z,31.11
2023-08-20T16:30:22.479Z,31.11
2023-08-20T16:33:00.071Z,31.12
2023-08-20T16:35:43.823Z,31.14
2023-08-20T16:38:24.247Z,31.16
2023-08-20T16:41:07.333Z,31.15
2023-08-20T16:43:54.553Z,31.15
2023-08-20T16:46:32.392Z,31.15
2023-08-20T16:49:14.586Z,31.15
2023-08-20T16:51:56.502Z,31.13
2023-08-20T16:54:41.014Z,31.12
2023-08-20T16:57:18.977Z,31.12
2023-08-20T17:00:02.487Z,31.09
2023-08-20T17:02:39.067Z,31.06
2023-08-20T17:05:24.648Z,31.02
2023-08-20T17:08:04.063Z,30.99
2023-08-20T17:10:53.950Z,30.95
2023-08-20T17:13:55.641Z,31.01
2023-08-20T17:16:34.375Z,31.77
2023-08-20T17:19:12.119Z,32.53
2023-08-20T17:21:49.023Z,33.16
2023-08-20T17:24:27.326Z,33.59
2023-08-20T17:27:07.134Z,33.96
2023-08-20T17:29:45.376Z,34.27
2023-08-20T17:32:25.242Z,34.52
2023-08-20T17:35:02.531Z,34.71
2023-08-20T17:37:47.153Z,34.85
2023-08-20T17:40:24.106Z,34.92
2023-08-20T17:43:06.040Z,34.97
2023-08-20T17:45:51.435Z,34.96
2023-08-20T17:48:29.516Z,34.90
2023-08-20T17:51:06.136Z,34.84
2023-08-20T17:53:43.075Z,34.73
2023-08-20T17:56:22.075Z,34.53
2023-08-20T17:58:59.088Z,34.37
2023-08-20T18:01:38.853Z,34.20
2023-08-20T18:07:26.240Z,33.59
2023-08-20T18:10:13.367Z,33.21
2023-08-20T18:12:51.247Z,32.88
2023-08-20T18:15:29.470Z,32.59
2023-08-20T18:18:07.323Z,32.33
2023-08-20T18:20:44.132Z,32.10
2023-08-20T18:23:23.468Z,31.89
2023-08-20T18:26:03.211Z,31.68
2023-08-20T18:28:42.632Z,31.50
2023-08-20T18:31:19.392Z,31.31
2023-08-20T18:34:03.406Z,31.13
2023-08-20T18:36:40.669Z,30.98
2023-08-20T18:39:23.525Z,30.82
2023-08-20T18:42:04.165Z,30.64
2023-08-20T18:44:45.176Z,30.44
2023-08-20T18:47:24.291Z,30.32
2023-08-20T18:50:03.581Z,30.20
2023-08-20T18:52:43.227Z,29.99
2023-08-20T18:55:26.663Z,29.80
2023-08-20T18:58:11.495Z,29.63
2023-08-20T19:00:48.608Z,29.48
2023-08-20T19:03:27.788Z,29.37
2023-08-20T19:06:13.441Z,29.27
2023-08-20T19:11:48.378Z,29.04
2023-08-20T19:14:29.665Z,28.96
2023-08-20T19:17:10.509Z,28.84
2023-08-20T19:19:49.435Z,28.77
2023-08-20T19:22:30.412Z,28.69
2023-08-20T19:25:15.094Z,28.61
2023-08-20T19:27:57.724Z,28.54
2023-08-20T19:30:37.340Z,28.51
2023-08-20T19:33:18.666Z,28.47
2023-08-20T19:36:00.369Z,28.43
2023-08-20T19:38:42.262Z,28.37
2023-08-20T19:41:24.269Z,28.32
2023-08-20T19:44:02.992Z,28.26
2023-08-20T19:46:41.716Z,28.18
2023-08-20T19:49:22.677Z,28.09
2023-08-20T19:52:02.447Z,27.99
2023-08-20T19:54:39.246Z,27.91
2023-08-20T19:57:23.263Z,27.85
2023-08-20T20:00:01.454Z,27.81
2023-08-20T20:02:45.859Z,27.76
2023-08-20T20:05:25.384Z,27.73
2023-08-20T20:08:05.409Z,27.64
2023-08-20T20:10:46.029Z,27.58
2023-08-20T20:13:22.441Z,27.50
2023-08-20T20:19:15.372Z,27.38
2023-08-20T20:22:03.193Z,27.35
2023-08-20T20:24:42.373Z,27.30
2023-08-20T20:27:19.358Z,27.26
2023-08-20T20:30:02.531Z,27.24
2023-08-20T20:32:42.529Z,27.22
2023-08-20T20:35:20.356Z,27.17
2023-08-20T20:38:00.107Z,27.12
2023-08-20T20:40:37.414Z,27.07
2023-08-20T20:43:15.777Z,27.01
2023-08-20T20:45:59.426Z,26.98
2023-08-20T20:48:38.391Z,26.97
2023-08-20T20:51:17.451Z,26.96
2023-08-20T20:53:56.724Z,26.94
2023-08-20T20:56:36.786Z,26.89
2023-08-20T20:59:19.873Z,26.86
2023-08-20T21:01:56.498Z,26.83
2023-08-20T21:04:44.805Z,26.80
2023-08-20T21:07:25.575Z,26.76
2023-08-20T21:10:08.430Z,26.72
2023-08-20T21:12:47.849Z,26.71
2023-08-20T21:15:28.107Z,26.68
2023-08-20T21:18:06.530Z,26.65
2023-08-20T21:20:43.910Z,26.61
2023-08-20T21:23:21.813Z,26.60
2023-08-20T21:25:59.681Z,26.56
2023-08-20T21:28:37.688Z,26.52
2023-08-20T21:31:14.637Z,26.52
2023-08-20T21:33:51.719Z,26.55
2023-08-20T21:36:28.474Z,26.54
2023-08-20T21:39:07.636Z,26.50
2023-08-20T21:41:46.772Z,26.44
2023-08-20T21:44:23.659Z,26.38
2023-08-20T21:47:01.636Z,26.34
2023-08-20T21:49:38.559Z,26.32
2023-08-20T21:52:15.644Z,26.28
2023-08-20T21:54:54.508Z,26.25
2023-08-20T21:57:34.754Z,26.18
2023-08-20T22:00:17.287Z,26.16
2023-08-20T22:03:03.077Z,26.13
2023-08-20T22:05:39.567Z,26.09
2023-08-20T22:08:27.462Z,26.03
2023-08-20T22:11:04.661Z,26.02
2023-08-20T22:13:42.783Z,25.98
2023-08-20T22:16:20.669Z,25.93
2023-08-20T22:19:00.765Z,25.93
2023-08-20T22:21:41.233Z,25.94
2023-08-20T22:24:17.492Z,25.92
2023-08-20T22:26:58.643Z,25.89
2023-08-20T22:29:35.623Z,25.87
2023-08-20T22:32:12.577Z,25.83
2023-08-20T22:34:51.613Z,25.81
2023-08-20T22:37:29.632Z,25.79
2023-08-20T22:40:08.676Z,25.76
2023-08-20T22:42:45.626Z,25.73
2023-08-20T22:45:22.685Z,25.75
2023-08-20T22:47:59.756Z,25.77
2023-08-20T22:50:37.117Z,25.79
2023-08-20T22:53:14.657Z,25.77
2023-08-20T22:55:51.644Z,25.77
2023-08-20T22:58:28.680Z,25.80
2023-08-20T23:01:08.699Z,25.78
2023-08-20T23:03:45.646Z,25.75
2023-08-20T23:06:40.577Z,25.72
2023-08-20T23:09:22.714Z,25.68
2023-08-20T23:12:00.633Z,25.61
2023-08-20T23:14:38.628Z,25.57
2023-08-20T23:17:15.840Z,25.52
2023-08-20T23:19:52.728Z,25.46
2023-08-20T23:22:30.660Z,25.43
2023-08-20T23:25:08.709Z,25.39
2023-08-20T23:27:45.672Z,25.33
2023-08-20T23:30:24.728Z,25.27
2023-08-20T23:33:04.732Z,25.24
2023-08-20T23:35:45.672Z,25.18
2023-08-20T23:38:24.019Z,25.18
2023-08-20T23:41:04.727Z,25.12
2023-08-20T23:43:41.791Z,25.13
2023-08-20T23:46:20.874Z,25.13
2023-08-20T23:49:04.787Z,25.12
2023-08-20T23:51:41.924Z,25.14
2023-08-20T23:54:19.693Z,25.12
2023-08-20T23:56:57.018Z,25.08
2023-08-20T23:59:35.169Z,25.03
